sensor_id;sensor_type;location;lat;lon;timestamp;P1;durP1;ratioP1;P2;durP2;ratioP2
56991;SDS011;42885;49.754;18.636;2023-09-19T00:00:01;13.68;;;9.65;;
56991;SDS011;42885;49.754;18.636;2023-09-19T00:02:32;11.08;;;9.98;;
56991;SDS011;42885;49.754;18.636;2023-09-19T00:05:05;12.50;;;9.80;;
56991;SDS011;42885;49.754;18.636;2023-09-19T00:07:56;13.07;;;10.27;;
56991;SDS011;42885;49.754;18.636;2023-09-19T00:10:46;11.48;;;9.65;;
56991;SDS011;42885;49.754;18.636;2023-09-19T00:13:26;11.48;;;10.28;;
56991;SDS011;42885;49.754;18.636;2023-09-19T00:16:01;10.75;;;9.68;;
56991;SDS011;42885;49.754;18.636;2023-09-19T00:18:37;11.20;;;9.83;;
56991;SDS011;42885;49.754;18.636;2023-09-19T00:21:08;12.50;;;10.03;;
56991;SDS011;42885;49.754;18.636;2023-09-19T00:23:39;12.37;;;9.97;;
56991;SDS011;42885;49.754;18.636;2023-09-19T00:26:10;11.85;;;10.48;;
56991;SDS011;42885;49.754;18.636;2023-09-19T00:28:42;11.93;;;10.25;;
56991;SDS011;42885;49.754;18.636;2023-09-19T00:31:25;17.77;;;10.48;;
56991;SDS011;42885;49.754;18.636;2023-09-19T00:34:04;13.32;;;10.85;;
56991;SDS011;42885;49.754;18.636;2023-09-19T00:36:36;11.95;;;10.23;;
56991;SDS011;42885;49.754;18.636;2023-09-19T00:39:13;15.32;;;10.35;;
56991;SDS011;42885;49.754;18.636;2023-09-19T00:41:50;13.83;;;9.95;;
56991;SDS011;42885;49.754;18.636;2023-09-19T00:44:24;13.43;;;10.75;;
56991;SDS011;42885;49.754;18.636;2023-09-19T00:46:55;13.53;;;9.73;;
56991;SDS011;42885;49.754;18.636;2023-09-19T00:49:37;12.20;;;10.67;;
56991;SDS011;42885;49.754;18.636;2023-09-19T00:52:14;11.67;;;10.40;;
56991;SDS011;42885;49.754;18.636;2023-09-19T00:54:47;13.15;;;10.58;;
56991;SDS011;42885;49.754;18.636;2023-09-19T00:57:19;12.65;;;10.68;;
56991;SDS011;42885;49.754;18.636;2023-09-19T00:59:54;15.05;;;10.13;;
56991;SDS011;42885;49.754;18.636;2023-09-19T01:02:44;12.73;;;10.78;;
56991;SDS011;42885;49.754;18.636;2023-09-19T01:05:15;13.80;;;10.88;;
56991;SDS011;42885;49.754;18.636;2023-09-19T01:07:50;14.10;;;10.65;;
56991;SDS011;42885;49.754;18.636;2023-09-19T01:10:34;14.33;;;10.20;;
56991;SDS011;42885;49.754;18.636;2023-09-19T01:13:16;13.67;;;10.73;;
56991;SDS011;42885;49.754;18.636;2023-09-19T01:21:44;16.40;;;11.25;;
56991;SDS011;42885;49.754;18.636;2023-09-19T01:30:52;19.90;;;12.17;;
56991;SDS011;42885;49.754;18.636;2023-09-19T01:36:36;18.48;;;12.10;;
56991;SDS011;42885;49.754;18.636;2023-09-19T01:39:12;18.00;;;12.35;;
56991;SDS011;42885;49.754;18.636;2023-09-19T01:41:59;18.07;;;13.30;;
56991;SDS011;42885;49.754;18.636;2023-09-19T01:44:44;18.30;;;11.88;;
56991;SDS011;42885;49.754;18.636;2023-09-19T01:53:10;17.57;;;14.07;;
56991;SDS011;42885;49.754;18.636;2023-09-19T01:55:43;15.47;;;13.40;;
56991;SDS011;42885;49.754;18.636;2023-09-19T01:59:02;16.77;;;14.28;;
56991;SDS011;42885;49.754;18.636;2023-09-19T02:00:56;17.32;;;15.32;;
56991;SDS011;42885;49.754;18.636;2023-09-19T02:03:29;20.97;;;16.30;;
56991;SDS011;42885;49.754;18.636;2023-09-19T02:06:03;24.10;;;16.82;;
56991;SDS011;42885;49.754;18.636;2023-09-19T02:08:36;22.00;;;17.32;;
56991;SDS011;42885;49.754;18.636;2023-09-19T02:11:21;20.20;;;17.65;;
56991;SDS011;42885;49.754;18.636;2023-09-19T02:13:52;19.10;;;17.17;;
56991;SDS011;42885;49.754;18.636;2023-09-19T02:16:41;19.17;;;17.07;;
56991;SDS011;42885;49.754;18.636;2023-09-19T02:19:13;21.80;;;17.48;;
56991;SDS011;42885;49.754;18.636;2023-09-19T02:21:45;20.90;;;18.20;;
56991;SDS011;42885;49.754;18.636;2023-09-19T02:24:17;21.10;;;18.60;;
56991;SDS011;42885;49.754;18.636;2023-09-19T02:26:51;22.70;;;19.20;;
56991;SDS011;42885;49.754;18.636;2023-09-19T02:29:32;23.07;;;18.73;;
56991;SDS011;42885;49.754;18.636;2023-09-19T02:32:11;21.95;;;19.30;;
56991;SDS011;42885;49.754;18.636;2023-09-19T02:34:48;24.23;;;18.87;;
56991;SDS011;42885;49.754;18.636;2023-09-19T02:37:25;20.17;;;18.15;;
56991;SDS011;42885;49.754;18.636;2023-09-19T02:40:14;20.25;;;18.05;;
56991;SDS011;42885;49.754;18.636;2023-09-19T02:43:06;22.37;;;19.98;;
56991;SDS011;42885;49.754;18.636;2023-09-19T02:45:38;22.97;;;19.67;;
56991;SDS011;42885;49.754;18.636;2023-09-19T02:48:15;24.95;;;20.70;;
56991;SDS011;42885;49.754;18.636;2023-09-19T02:50:59;27.32;;;20.10;;
56991;SDS011;42885;49.754;18.636;2023-09-19T02:53:33;20.72;;;18.62;;
56991;SDS011;42885;49.754;18.636;2023-09-19T02:56:11;24.00;;;19.65;;
56991;SDS011;42885;49.754;18.636;2023-09-19T02:58:42;27.30;;;20.02;;
56991;SDS011;42885;49.754;18.636;2023-09-19T03:01:13;22.50;;;20.12;;
56991;SDS011;42885;49.754;18.636;2023-09-19T03:03:45;21.62;;;19.48;;
56991;SDS011;42885;49.754;18.636;2023-09-19T03:06:24;20.48;;;18.23;;
56991;SDS011;42885;49.754;18.636;2023-09-19T03:08:54;20.62;;;16.17;;
56991;SDS011;42885;49.754;18.636;2023-09-19T03:11:34;25.75;;;17.57;;
56991;SDS011;42885;49.754;18.636;2023-09-19T03:14:05;19.25;;;16.55;;
56991;SDS011;42885;49.754;18.636;2023-09-19T03:16:42;23.60;;;21.10;;
56991;SDS011;42885;49.754;18.636;2023-09-19T03:19:24;18.65;;;16.57;;
56991;SDS011;42885;49.754;18.636;2023-09-19T03:21:58;22.00;;;18.25;;
56991;SDS011;42885;49.754;18.636;2023-09-19T03:24:31;22.45;;;19.32;;
56991;SDS011;42885;49.754;18.636;2023-09-19T03:27:13;21.85;;;19.27;;
56991;SDS011;42885;49.754;18.636;2023-09-19T03:29:42;23.60;;;20.12;;
56991;SDS011;42885;49.754;18.636;2023-09-19T03:32:14;25.17;;;21.20;;
56991;SDS011;42885;49.754;18.636;2023-09-19T03:34:45;25.45;;;22.27;;
56991;SDS011;42885;49.754;18.636;2023-09-19T03:37:17;24.43;;;20.70;;
56991;SDS011;42885;49.754;18.636;2023-09-19T03:39:48;27.05;;;22.40;;
56991;SDS011;42885;49.754;18.636;2023-09-19T03:42:26;27.32;;;21.93;;
56991;SDS011;42885;49.754;18.636;2023-09-19T03:45:14;25.52;;;21.30;;
56991;SDS011;42885;49.754;18.636;2023-09-19T03:48:00;27.02;;;21.23;;
56991;SDS011;42885;49.754;18.636;2023-09-19T03:50:34;28.90;;;21.85;;
56991;SDS011;42885;49.754;18.636;2023-09-19T03:53:05;23.73;;;20.62;;
56991;SDS011;42885;49.754;18.636;2023-09-19T03:55:39;23.27;;;20.75;;
56991;SDS011;42885;49.754;18.636;2023-09-19T03:58:13;26.60;;;21.57;;
56991;SDS011;42885;49.754;18.636;2023-09-19T04:00:44;28.42;;;22.50;;
56991;SDS011;42885;49.754;18.636;2023-09-19T04:03:18;27.75;;;22.48;;
56991;SDS011;42885;49.754;18.636;2023-09-19T04:05:50;27.98;;;24.35;;
56991;SDS011;42885;49.754;18.636;2023-09-19T04:08:24;25.47;;;22.57;;
56991;SDS011;42885;49.754;18.636;2023-09-19T04:11:01;26.55;;;22.35;;
56991;SDS011;42885;49.754;18.636;2023-09-19T04:13:32;25.20;;;22.50;;
56991;SDS011;42885;49.754;18.636;2023-09-19T04:16:03;29.13;;;22.10;;
56991;SDS011;42885;49.754;18.636;2023-09-19T04:18:35;28.10;;;22.00;;
56991;SDS011;42885;49.754;18.636;2023-09-19T04:21:10;24.92;;;21.55;;
56991;SDS011;42885;49.754;18.636;2023-09-19T04:23:47;25.95;;;23.10;;
56991;SDS011;42885;49.754;18.636;2023-09-19T04:26:18;28.77;;;22.60;;
56991;SDS011;42885;49.754;18.636;2023-09-19T04:28:50;29.93;;;24.20;;
56991;SDS011;42885;49.754;18.636;2023-09-19T04:31:24;28.40;;;22.25;;
56991;SDS011;42885;49.754;18.636;2023-09-19T04:33:59;28.62;;;23.65;;
56991;SDS011;42885;49.754;18.636;2023-09-19T04:36:32;30.27;;;24.57;;
56991;SDS011;42885;49.754;18.636;2023-09-19T04:39:03;26.27;;;22.93;;
56991;SDS011;42885;49.754;18.636;2023-09-19T04:41:37;58.40;;;50.33;;
56991;SDS011;42885;49.754;18.636;2023-09-19T04:44:19;28.38;;;23.10;;
56991;SDS011;42885;49.754;18.636;2023-09-19T04:46:50;28.50;;;22.15;;
56991;SDS011;42885;49.754;18.636;2023-09-19T04:49:20;31.62;;;24.37;;
56991;SDS011;42885;49.754;18.636;2023-09-19T04:51:51;26.93;;;23.07;;
56991;SDS011;42885;49.754;18.636;2023-09-19T04:54:23;27.52;;;23.74;;
56991;SDS011;42885;49.754;18.636;2023-09-19T04:56:57;29.37;;;24.55;;
56991;SDS011;42885;49.754;18.636;2023-09-19T04:59:37;32.13;;;25.23;;
56991;SDS011;42885;49.754;18.636;2023-09-19T05:02:13;28.67;;;25.57;;
56991;SDS011;42885;49.754;18.636;2023-09-19T05:04:44;35.03;;;26.90;;
56991;SDS011;42885;49.754;18.636;2023-09-19T05:07:14;31.75;;;25.23;;
56991;SDS011;42885;49.754;18.636;2023-09-19T05:09:46;27.70;;;24.53;;
56991;SDS011;42885;49.754;18.636;2023-09-19T05:12:17;29.05;;;22.42;;
56991;SDS011;42885;49.754;18.636;2023-09-19T05:15:07;37.60;;;33.58;;
56991;SDS011;42885;49.754;18.636;2023-09-19T05:17:39;23.83;;;19.85;;
56991;SDS011;42885;49.754;18.636;2023-09-19T05:20:10;23.77;;;19.50;;
56991;SDS011;42885;49.754;18.636;2023-09-19T05:22:45;26.35;;;19.67;;
56991;SDS011;42885;49.754;18.636;2023-09-19T05:25:16;25.45;;;20.37;;
56991;SDS011;42885;49.754;18.636;2023-09-19T05:27:49;23.13;;;20.10;;
56991;SDS011;42885;49.754;18.636;2023-09-19T05:30:25;23.95;;;19.95;;
56991;SDS011;42885;49.754;18.636;2023-09-19T05:33:02;25.55;;;20.23;;
56991;SDS011;42885;49.754;18.636;2023-09-19T05:35:34;23.17;;;19.87;;
56991;SDS011;42885;49.754;18.636;2023-09-19T05:38:18;23.85;;;19.23;;
56991;SDS011;42885;49.754;18.636;2023-09-19T05:40:53;19.82;;;17.32;;
56991;SDS011;42885;49.754;18.636;2023-09-19T05:43:24;21.00;;;17.57;;
56991;SDS011;42885;49.754;18.636;2023-09-19T05:45:54;18.10;;;16.00;;
56991;SDS011;42885;49.754;18.636;2023-09-19T05:48:29;21.00;;;16.23;;
56991;SDS011;42885;49.754;18.636;2023-09-19T05:51:02;21.87;;;16.55;;
56991;SDS011;42885;49.754;18.636;2023-09-19T05:53:51;23.00;;;17.20;;
56991;SDS011;42885;49.754;18.636;2023-09-19T05:56:23;22.80;;;18.13;;
56991;SDS011;42885;49.754;18.636;2023-09-19T05:58:54;23.57;;;18.85;;
56991;SDS011;42885;49.754;18.636;2023-09-19T06:01:45;21.52;;;17.60;;
56991;SDS011;42885;49.754;18.636;2023-09-19T06:04:34;18.20;;;16.27;;
56991;SDS011;42885;49.754;18.636;2023-09-19T06:07:11;18.30;;;16.02;;
56991;SDS011;42885;49.754;18.636;2023-09-19T06:09:53;16.50;;;13.90;;
56991;SDS011;42885;49.754;18.636;2023-09-19T06:12:28;16.62;;;13.38;;
56991;SDS011;42885;49.754;18.636;2023-09-19T06:15:08;19.05;;;14.38;;
56991;SDS011;42885;49.754;18.636;2023-09-19T06:17:49;16.50;;;12.13;;
56991;SDS011;42885;49.754;18.636;2023-09-19T06:20:26;14.30;;;11.00;;
56991;SDS011;42885;49.754;18.636;2023-09-19T06:23:15;15.45;;;12.18;;
56991;SDS011;42885;49.754;18.636;2023-09-19T06:25:50;14.23;;;11.33;;
56991;SDS011;42885;49.754;18.636;2023-09-19T06:28:41;18.60;;;14.75;;
56991;SDS011;42885;49.754;18.636;2023-09-19T06:31:11;16.55;;;13.10;;
56991;SDS011;42885;49.754;18.636;2023-09-19T06:33:45;19.47;;;13.47;;
56991;SDS011;42885;49.754;18.636;2023-09-19T06:36:24;16.35;;;13.20;;
56991;SDS011;42885;49.754;18.636;2023-09-19T06:39:15;20.40;;;14.07;;
56991;SDS011;42885;49.754;18.636;2023-09-19T06:42:03;12.25;;;10.48;;
56991;SDS011;42885;49.754;18.636;2023-09-19T06:44:52;12.65;;;10.38;;
56991;SDS011;42885;49.754;18.636;2023-09-19T06:47:23;16.07;;;9.63;;
56991;SDS011;42885;49.754;18.636;2023-09-19T06:49:57;11.20;;;8.13;;
56991;SDS011;42885;49.754;18.636;2023-09-19T06:52:46;11.93;;;8.40;;
56991;SDS011;42885;49.754;18.636;2023-09-19T06:55:24;10.70;;;6.42;;
56991;SDS011;42885;49.754;18.636;2023-09-19T06:58:09;9.53;;;6.37;;
56991;SDS011;42885;49.754;18.636;2023-09-19T07:00:59;6.58;;;5.35;;
56991;SDS011;42885;49.754;18.636;2023-09-19T07:03:48;6.72;;;4.95;;
56991;SDS011;42885;49.754;18.636;2023-09-19T07:06:26;6.47;;;5.05;;
56991;SDS011;42885;49.754;18.636;2023-09-19T07:09:07;8.75;;;5.15;;
56991;SDS011;42885;49.754;18.636;2023-09-19T07:11:40;8.07;;;5.10;;
56991;SDS011;42885;49.754;18.636;2023-09-19T07:14:11;9.20;;;5.08;;
56991;SDS011;42885;49.754;18.636;2023-09-19T07:16:43;6.08;;;5.20;;
56991;SDS011;42885;49.754;18.636;2023-09-19T07:19:34;7.50;;;5.05;;
56991;SDS011;42885;49.754;18.636;2023-09-19T07:22:14;12.88;;;5.50;;
56991;SDS011;42885;49.754;18.636;2023-09-19T07:24:47;9.23;;;4.60;;
56991;SDS011;42885;49.754;18.636;2023-09-19T07:27:36;6.30;;;3.92;;
56991;SDS011;42885;49.754;18.636;2023-09-19T07:30:09;6.03;;;3.43;;
56991;SDS011;42885;49.754;18.636;2023-09-19T07:32:40;9.60;;;3.95;;
56991;SDS011;42885;49.754;18.636;2023-09-19T07:35:17;4.37;;;3.08;;
56991;SDS011;42885;49.754;18.636;2023-09-19T07:37:50;4.87;;;2.83;;
56991;SDS011;42885;49.754;18.636;2023-09-19T07:40:27;4.90;;;2.65;;
56991;SDS011;42885;49.754;18.636;2023-09-19T07:43:15;4.77;;;2.43;;
56991;SDS011;42885;49.754;18.636;2023-09-19T07:46:05;4.87;;;2.77;;
56991;SDS011;42885;49.754;18.636;2023-09-19T07:48:47;4.83;;;2.58;;
56991;SDS011;42885;49.754;18.636;2023-09-19T07:51:20;6.20;;;2.83;;
56991;SDS011;42885;49.754;18.636;2023-09-19T07:54:01;4.25;;;2.55;;
56991;SDS011;42885;49.754;18.636;2023-09-19T07:56:36;3.27;;;2.50;;
56991;SDS011;42885;49.754;18.636;2023-09-19T07:59:13;4.70;;;2.93;;
56991;SDS011;42885;49.754;18.636;2023-09-19T08:01:46;8.00;;;3.20;;
56991;SDS011;42885;49.754;18.636;2023-09-19T08:04:24;4.87;;;2.90;;
56991;SDS011;42885;49.754;18.636;2023-09-19T08:07:14;7.45;;;2.80;;
56991;SDS011;42885;49.754;18.636;2023-09-19T08:10:01;3.77;;;2.50;;
56991;SDS011;42885;49.754;18.636;2023-09-19T08:12:47;4.55;;;2.87;;
56991;SDS011;42885;49.754;18.636;2023-09-19T08:15:32;4.20;;;3.30;;
56991;SDS011;42885;49.754;18.636;2023-09-19T08:18:03;5.50;;;3.37;;
56991;SDS011;42885;49.754;18.636;2023-09-19T08:20:53;4.75;;;3.20;;
56991;SDS011;42885;49.754;18.636;2023-09-19T08:23:23;7.72;;;3.05;;
56991;SDS011;42885;49.754;18.636;2023-09-19T08:26:12;3.72;;;3.17;;
56991;SDS011;42885;49.754;18.636;2023-09-19T08:28:52;10.15;;;9.30;;
56991;SDS011;42885;49.754;18.636;2023-09-19T08:31:33;5.25;;;3.12;;
56991;SDS011;42885;49.754;18.636;2023-09-19T08:34:09;5.07;;;3.43;;
56991;SDS011;42885;49.754;18.636;2023-09-19T08:36:58;5.22;;;3.22;;
56991;SDS011;42885;49.754;18.636;2023-09-19T08:39:36;3.93;;;3.10;;
56991;SDS011;42885;49.754;18.636;2023-09-19T08:42:26;5.47;;;3.12;;
56991;SDS011;42885;49.754;18.636;2023-09-19T08:45:10;4.97;;;3.08;;
56991;SDS011;42885;49.754;18.636;2023-09-19T08:47:50;4.15;;;2.67;;
56991;SDS011;42885;49.754;18.636;2023-09-19T08:50:49;5.08;;;3.17;;
56991;SDS011;42885;49.754;18.636;2023-09-19T08:59:13;6.08;;;2.98;;
56991;SDS011;42885;49.754;18.636;2023-09-19T09:01:54;5.53;;;2.70;;
56991;SDS011;42885;49.754;18.636;2023-09-19T09:04:45;7.05;;;3.12;;
56991;SDS011;42885;49.754;18.636;2023-09-19T09:07:41;5.83;;;3.08;;
56991;SDS011;42885;49.754;18.636;2023-09-19T09:10:11;4.37;;;2.40;;
56991;SDS011;42885;49.754;18.636;2023-09-19T09:12:54;3.90;;;2.77;;
56991;SDS011;42885;49.754;18.636;2023-09-19T09:15:25;6.67;;;2.90;;
56991;SDS011;42885;49.754;18.636;2023-09-19T09:18:11;4.67;;;2.50;;
56991;SDS011;42885;49.754;18.636;2023-09-19T09:21:00;5.22;;;3.02;;
56991;SDS011;42885;49.754;18.636;2023-09-19T09:23:50;4.87;;;3.20;;
56991;SDS011;42885;49.754;18.636;2023-09-19T09:29:47;6.35;;;3.40;;
56991;SDS011;42885;49.754;18.636;2023-09-19T09:32:30;6.40;;;3.62;;
56991;SDS011;42885;49.754;18.636;2023-09-19T09:35:20;4.40;;;3.30;;
56991;SDS011;42885;49.754;18.636;2023-09-19T09:37:59;6.28;;;2.98;;
56991;SDS011;42885;49.754;18.636;2023-09-19T09:40:45;8.83;;;3.58;;
56991;SDS011;42885;49.754;18.636;2023-09-19T09:43:31;7.08;;;3.25;;
56991;SDS011;42885;49.754;18.636;2023-09-19T09:46:15;4.72;;;3.50;;
56991;SDS011;42885;49.754;18.636;2023-09-19T09:49:10;6.37;;;3.73;;
56991;SDS011;42885;49.754;18.636;2023-09-19T09:52:07;7.25;;;3.22;;
56991;SDS011;42885;49.754;18.636;2023-09-19T09:55:00;6.83;;;3.60;;
56991;SDS011;42885;49.754;18.636;2023-09-19T09:57:42;6.08;;;3.52;;
56991;SDS011;42885;49.754;18.636;2023-09-19T10:00:27;7.40;;;3.52;;
56991;SDS011;42885;49.754;18.636;2023-09-19T10:03:20;5.85;;;2.90;;
56991;SDS011;42885;49.754;18.636;2023-09-19T10:06:10;5.10;;;3.10;;
56991;SDS011;42885;49.754;18.636;2023-09-19T10:09:12;6.35;;;3.42;;
56991;SDS011;42885;49.754;18.636;2023-09-19T10:12:08;7.72;;;3.50;;
56991;SDS011;42885;49.754;18.636;2023-09-19T10:14:49;6.42;;;3.58;;
56991;SDS011;42885;49.754;18.636;2023-09-19T10:17:39;7.03;;;3.30;;
56991;SDS011;42885;49.754;18.636;2023-09-19T10:20:32;5.47;;;2.80;;
56991;SDS011;42885;49.754;18.636;2023-09-19T10:23:13;4.75;;;2.92;;
56991;SDS011;42885;49.754;18.636;2023-09-19T10:26:05;7.30;;;2.87;;
56991;SDS011;42885;49.754;18.636;2023-09-19T10:28:56;5.03;;;3.07;;
56991;SDS011;42885;49.754;18.636;2023-09-19T10:31:36;4.60;;;3.27;;
56991;SDS011;42885;49.754;18.636;2023-09-19T10:34:16;4.00;;;3.10;;
56991;SDS011;42885;49.754;18.636;2023-09-19T10:37:06;4.93;;;2.83;;
56991;SDS011;42885;49.754;18.636;2023-09-19T10:39:40;4.83;;;2.83;;
56991;SDS011;42885;49.754;18.636;2023-09-19T10:42:14;8.33;;;2.65;;
56991;SDS011;42885;49.754;18.636;2023-09-19T10:45:05;5.75;;;2.95;;
56991;SDS011;42885;49.754;18.636;2023-09-19T10:47:46;4.67;;;2.87;;
56991;SDS011;42885;49.754;18.636;2023-09-19T10:50:20;5.13;;;2.50;;
56991;SDS011;42885;49.754;18.636;2023-09-19T10:52:55;5.12;;;2.77;;
56991;SDS011;42885;49.754;18.636;2023-09-19T10:55:36;4.22;;;2.77;;
56991;SDS011;42885;49.754;18.636;2023-09-19T10:58:26;3.45;;;2.67;;
56991;SDS011;42885;49.754;18.636;2023-09-19T11:01:01;4.15;;;2.90;;
56991;SDS011;42885;49.754;18.636;2023-09-19T11:03:51;4.75;;;2.60;;
56991;SDS011;42885;49.754;18.636;2023-09-19T11:06:25;2.95;;;2.05;;
56991;SDS011;42885;49.754;18.636;2023-09-19T11:09:04;2.98;;;2.27;;
56991;SDS011;42885;49.754;18.636;2023-09-19T11:12:04;2.55;;;2.17;;
56991;SDS011;42885;49.754;18.636;2023-09-19T11:14:39;5.28;;;3.02;;
56991;SDS011;42885;49.754;18.636;2023-09-19T11:17:39;3.60;;;2.50;;
56991;SDS011;42885;49.754;18.636;2023-09-19T11:20:24;4.78;;;2.27;;
56991;SDS011;42885;49.754;18.636;2023-09-19T11:26:05;4.47;;;2.30;;
56991;SDS011;42885;49.754;18.636;2023-09-19T11:29:20;2.65;;;2.30;;
56991;SDS011;42885;49.754;18.636;2023-09-19T11:31:43;10.03;;;2.50;;
56991;SDS011;42885;49.754;18.636;2023-09-19T11:40:13;4.10;;;2.37;;
56991;SDS011;42885;49.754;18.636;2023-09-19T11:43:27;5.40;;;2.20;;
56991;SDS011;42885;49.754;18.636;2023-09-19T11:48:18;4.85;;;2.08;;
56991;SDS011;42885;49.754;18.636;2023-09-19T11:50:49;4.75;;;2.40;;
56991;SDS011;42885;49.754;18.636;2023-09-19T11:53:30;3.60;;;2.33;;
56991;SDS011;42885;49.754;18.636;2023-09-19T11:56:04;3.55;;;2.30;;
56991;SDS011;42885;49.754;18.636;2023-09-19T11:58:58;3.77;;;1.80;;
56991;SDS011;42885;49.754;18.636;2023-09-19T12:01:21;6.00;;;2.27;;
56991;SDS011;42885;49.754;18.636;2023-09-19T12:04:01;4.50;;;2.35;;
56991;SDS011;42885;49.754;18.636;2023-09-19T12:06:40;4.97;;;2.03;;
56991;SDS011;42885;49.754;18.636;2023-09-19T12:09:31;4.37;;;2.13;;
56991;SDS011;42885;49.754;18.636;2023-09-19T12:12:11;4.30;;;2.08;;
56991;SDS011;42885;49.754;18.636;2023-09-19T12:14:48;2.90;;;2.00;;
56991;SDS011;42885;49.754;18.636;2023-09-19T12:17:24;3.12;;;1.85;;
56991;SDS011;42885;49.754;18.636;2023-09-19T12:20:17;4.30;;;1.92;;
56991;SDS011;42885;49.754;18.636;2023-09-19T12:23:12;4.85;;;2.20;;
56991;SDS011;42885;49.754;18.636;2023-09-19T12:25:44;2.90;;;2.08;;
56991;SDS011;42885;49.754;18.636;2023-09-19T12:28:20;5.47;;;2.10;;
56991;SDS011;42885;49.754;18.636;2023-09-19T12:31:06;3.83;;;2.08;;
56991;SDS011;42885;49.754;18.636;2023-09-19T12:33:41;2.10;;;1.90;;
56991;SDS011;42885;49.754;18.636;2023-09-19T12:36:31;3.50;;;1.97;;
56991;SDS011;42885;49.754;18.636;2023-09-19T12:39:24;3.08;;;1.90;;
56991;SDS011;42885;49.754;18.636;2023-09-19T12:42:13;3.98;;;1.90;;
56991;SDS011;42885;49.754;18.636;2023-09-19T12:44:51;4.42;;;2.05;;
56991;SDS011;42885;49.754;18.636;2023-09-19T12:47:24;4.53;;;2.20;;
56991;SDS011;42885;49.754;18.636;2023-09-19T12:52:50;4.28;;;2.15;;
56991;SDS011;42885;49.754;18.636;2023-09-19T12:55:28;3.67;;;1.92;;
56991;SDS011;42885;49.754;18.636;2023-09-19T12:58:20;2.42;;;2.00;;
56991;SDS011;42885;49.754;18.636;2023-09-19T13:00:54;5.37;;;2.23;;
56991;SDS011;42885;49.754;18.636;2023-09-19T13:03:27;2.35;;;1.85;;
56991;SDS011;42885;49.754;18.636;2023-09-19T13:06:03;3.22;;;2.10;;
56991;SDS011;42885;49.754;18.636;2023-09-19T13:08:41;4.17;;;2.20;;
56991;SDS011;42885;49.754;18.636;2023-09-19T13:11:15;3.95;;;2.37;;
56991;SDS011;42885;49.754;18.636;2023-09-19T13:14:14;4.42;;;2.12;;
56991;SDS011;42885;49.754;18.636;2023-09-19T13:19:41;3.60;;;1.87;;
56991;SDS011;42885;49.754;18.636;2023-09-19T13:25:15;3.35;;;2.00;;
56991;SDS011;42885;49.754;18.636;2023-09-19T13:28:06;4.30;;;2.30;;
56991;SDS011;42885;49.754;18.636;2023-09-19T13:30:37;2.90;;;1.98;;
56991;SDS011;42885;49.754;18.636;2023-09-19T13:33:10;4.47;;;2.17;;
56991;SDS011;42885;49.754;18.636;2023-09-19T13:35:48;3.98;;;2.00;;
56991;SDS011;42885;49.754;18.636;2023-09-19T13:38:37;8.80;;;3.50;;
56991;SDS011;42885;49.754;18.636;2023-09-19T13:41:07;5.80;;;2.47;;
56991;SDS011;42885;49.754;18.636;2023-09-19T13:43:58;8.38;;;2.55;;
56991;SDS011;42885;49.754;18.636;2023-09-19T13:46:41;5.35;;;2.90;;
56991;SDS011;42885;49.754;18.636;2023-09-19T13:49:20;17.73;;;3.52;;
56991;SDS011;42885;49.754;18.636;2023-09-19T13:51:58;8.15;;;3.27;;
56991;SDS011;42885;49.754;18.636;2023-09-19T13:54:32;4.80;;;2.73;;
56991;SDS011;42885;49.754;18.636;2023-09-19T13:57:22;4.92;;;2.75;;
56991;SDS011;42885;49.754;18.636;2023-09-19T14:00:14;4.17;;;2.65;;
56991;SDS011;42885;49.754;18.636;2023-09-19T14:03:04;4.00;;;2.60;;
56991;SDS011;42885;49.754;18.636;2023-09-19T14:05:35;3.95;;;2.75;;
56991;SDS011;42885;49.754;18.636;2023-09-19T14:08:06;4.47;;;3.10;;
56991;SDS011;42885;49.754;18.636;2023-09-19T14:10:39;4.50;;;3.10;;
56991;SDS011;42885;49.754;18.636;2023-09-19T14:13:10;8.23;;;7.05;;
56991;SDS011;42885;49.754;18.636;2023-09-19T14:15:48;7.03;;;3.58;;
56991;SDS011;42885;49.754;18.636;2023-09-19T14:18:18;3.30;;;2.95;;
56991;SDS011;42885;49.754;18.636;2023-09-19T14:20:52;4.12;;;2.90;;
56991;SDS011;42885;49.754;18.636;2023-09-19T14:23:39;3.72;;;2.72;;
56991;SDS011;42885;49.754;18.636;2023-09-19T14:26:17;5.30;;;2.50;;
56991;SDS011;42885;49.754;18.636;2023-09-19T14:28:48;6.33;;;4.60;;
56991;SDS011;42885;49.754;18.636;2023-09-19T14:31:31;4.47;;;4.08;;
56991;SDS011;42885;49.754;18.636;2023-09-19T14:34:08;5.25;;;3.08;;
56991;SDS011;42885;49.754;18.636;2023-09-19T14:36:39;4.57;;;2.90;;
56991;SDS011;42885;49.754;18.636;2023-09-19T14:39:10;4.95;;;2.75;;
56991;SDS011;42885;49.754;18.636;2023-09-19T14:41:59;3.87;;;2.50;;
56991;SDS011;42885;49.754;18.636;2023-09-19T14:44:30;7.15;;;3.02;;
56991;SDS011;42885;49.754;18.636;2023-09-19T14:47:13;4.65;;;2.92;;
56991;SDS011;42885;49.754;18.636;2023-09-19T14:49:54;2.62;;;2.05;;
56991;SDS011;42885;49.754;18.636;2023-09-19T14:52:37;5.47;;;2.60;;
56991;SDS011;42885;49.754;18.636;2023-09-19T14:55:23;5.37;;;2.60;;
56991;SDS011;42885;49.754;18.636;2023-09-19T14:58:01;3.60;;;2.50;;
56991;SDS011;42885;49.754;18.636;2023-09-19T15:00:46;7.60;;;2.60;;
56991;SDS011;42885;49.754;18.636;2023-09-19T15:03:19;3.12;;;2.05;;
56991;SDS011;42885;49.754;18.636;2023-09-19T15:06:03;4.40;;;2.30;;
56991;SDS011;42885;49.754;18.636;2023-09-19T15:08:34;5.05;;;2.50;;
56991;SDS011;42885;49.754;18.636;2023-09-19T15:11:07;4.70;;;2.50;;
56991;SDS011;42885;49.754;18.636;2023-09-19T15:13:39;31.20;;;27.98;;
56991;SDS011;42885;49.754;18.636;2023-09-19T15:16:11;5.17;;;4.45;;
56991;SDS011;42885;49.754;18.636;2023-09-19T15:18:43;6.90;;;3.83;;
56991;SDS011;42885;49.754;18.636;2023-09-19T15:21:17;5.92;;;3.87;;
56991;SDS011;42885;49.754;18.636;2023-09-19T15:23:48;4.08;;;3.42;;
56991;SDS011;42885;49.754;18.636;2023-09-19T15:26:20;5.10;;;2.70;;
56991;SDS011;42885;49.754;18.636;2023-09-19T15:28:51;4.25;;;2.58;;
56991;SDS011;42885;49.754;18.636;2023-09-19T15:31:41;4.20;;;2.80;;
56991;SDS011;42885;49.754;18.636;2023-09-19T15:34:12;5.65;;;3.17;;
56991;SDS011;42885;49.754;18.636;2023-09-19T15:36:48;6.12;;;2.70;;
56991;SDS011;42885;49.754;18.636;2023-09-19T15:39:19;4.90;;;3.25;;
56991;SDS011;42885;49.754;18.636;2023-09-19T15:41:54;7.45;;;3.42;;
56991;SDS011;42885;49.754;18.636;2023-09-19T15:44:25;6.95;;;2.30;;
56991;SDS011;42885;49.754;18.636;2023-09-19T15:46:56;6.80;;;2.93;;
56991;SDS011;42885;49.754;18.636;2023-09-19T15:49:30;2.75;;;2.37;;
56991;SDS011;42885;49.754;18.636;2023-09-19T15:52:02;2.90;;;1.82;;
56991;SDS011;42885;49.754;18.636;2023-09-19T15:54:36;3.13;;;1.60;;
56991;SDS011;42885;49.754;18.636;2023-09-19T15:57:16;5.70;;;1.60;;
56991;SDS011;42885;49.754;18.636;2023-09-19T15:59:50;4.30;;;1.90;;
56991;SDS011;42885;49.754;18.636;2023-09-19T16:02:36;4.28;;;1.90;;
56991;SDS011;42885;49.754;18.636;2023-09-19T16:05:07;2.65;;;1.95;;
56991;SDS011;42885;49.754;18.636;2023-09-19T16:07:56;1.98;;;1.70;;
56991;SDS011;42885;49.754;18.636;2023-09-19T16:10:36;3.02;;;2.17;;
56991;SDS011;42885;49.754;18.636;2023-09-19T16:13:07;2.17;;;1.73;;
56991;SDS011;42885;49.754;18.636;2023-09-19T16:15:44;2.85;;;1.77;;
56991;SDS011;42885;49.754;18.636;2023-09-19T16:18:18;5.67;;;2.22;;
56991;SDS011;42885;49.754;18.636;2023-09-19T16:20:49;4.03;;;2.12;;